sensor_id;sensor_type;location;lat;lon;timestamp;P1;durP1;ratioP1;P2;durP2;ratioP2
61642;SDS011;47551;52.506;4.678;2022-12-18T00:00:05;76.18;;;35.00;;
61642;SDS011;47551;52.506;4.678;2022-12-18T00:00:26;72.50;;;34.88;;
61642;SDS011;47551;52.506;4.678;2022-12-18T00:00:47;73.17;;;35.17;;
61642;SDS011;47551;52.506;4.678;2022-12-18T00:01:18;73.17;;;35.00;;
61642;SDS011;47551;52.506;4.678;2022-12-18T00:01:40;70.85;;;35.25;;
61642;SDS011;47551;52.506;4.678;2022-12-18T00:02:00;74.93;;;35.43;;
61642;SDS011;47551;52.506;4.678;2022-12-18T00:02:23;76.57;;;35.60;;
61642;SDS011;47551;52.506;4.678;2022-12-18T00:02:46;75.03;;;35.45;;
61642;SDS011;47551;52.506;4.678;2022-12-18T00:03:07;74.67;;;34.30;;
61642;SDS011;47551;52.506;4.678;2022-12-18T00:03:27;74.47;;;34.53;;
61642;SDS011;47551;52.506;4.678;2022-12-18T00:03:48;74.43;;;33.60;;
61642;SDS011;47551;52.506;4.678;2022-12-18T00:04:24;70.75;;;34.78;;
61642;SDS011;47551;52.506;4.678;2022-12-18T00:04:46;73.20;;;34.08;;
61642;SDS011;47551;52.506;4.678;2022-12-18T00:05:06;76.63;;;34.72;;
61642;SDS011;47551;52.506;4.678;2022-12-18T00:05:27;73.13;;;32.63;;
61642;SDS011;47551;52.506;4.678;2022-12-18T00:05:48;69.90;;;33.40;;
61642;SDS011;47551;52.506;4.678;2022-12-18T00:06:10;74.55;;;34.63;;
61642;SDS011;47551;52.506;4.678;2022-12-18T00:06:31;72.88;;;34.25;;
61642;SDS011;47551;52.506;4.678;2022-12-18T00:06:52;74.40;;;34.90;;
61642;SDS011;47551;52.506;4.678;2022-12-18T00:07:16;75.70;;;34.53;;
61642;SDS011;47551;52.506;4.678;2022-12-18T00:07:39;71.38;;;33.92;;
61642;SDS011;47551;52.506;4.678;2022-12-18T00:08:02;74.20;;;34.08;;
61642;SDS011;47551;52.506;4.678;2022-12-18T00:08:22;73.20;;;35.20;;
61642;SDS011;47551;52.506;4.678;2022-12-18T00:08:43;73.07;;;34.70;;
61642;SDS011;47551;52.506;4.678;2022-12-18T00:09:04;72.15;;;33.85;;
61642;SDS011;47551;52.506;4.678;2022-12-18T00:09:25;71.43;;;33.67;;
61642;SDS011;47551;52.506;4.678;2022-12-18T00:09:45;73.90;;;34.35;;
61642;SDS011;47551;52.506;4.678;2022-12-18T00:10:05;75.90;;;34.23;;
61642;SDS011;47551;52.506;4.678;2022-12-18T00:10:27;71.25;;;33.92;;
61642;SDS011;47551;52.506;4.678;2022-12-18T00:10:48;70.72;;;33.10;;
61642;SDS011;47551;52.506;4.678;2022-12-18T00:11:10;72.50;;;33.27;;
61642;SDS011;47551;52.506;4.678;2022-12-18T00:11:32;67.40;;;31.00;;
61642;SDS011;47551;52.506;4.678;2022-12-18T00:11:55;68.17;;;32.70;;
61642;SDS011;47551;52.506;4.678;2022-12-18T00:12:16;71.07;;;32.85;;
61642;SDS011;47551;52.506;4.678;2022-12-18T00:12:39;69.10;;;33.33;;
61642;SDS011;47551;52.506;4.678;2022-12-18T00:12:59;71.97;;;34.13;;
61642;SDS011;47551;52.506;4.678;2022-12-18T00:13:20;73.57;;;33.60;;
61642;SDS011;47551;52.506;4.678;2022-12-18T00:13:40;74.65;;;33.85;;
61642;SDS011;47551;52.506;4.678;2022-12-18T00:14:03;71.70;;;34.05;;
61642;SDS011;47551;52.506;4.678;2022-12-18T00:14:24;72.83;;;33.83;;
61642;SDS011;47551;52.506;4.678;2022-12-18T00:14:44;72.90;;;33.45;;
61642;SDS011;47551;52.506;4.678;2022-12-18T00:15:04;68.20;;;32.73;;
61642;SDS011;47551;52.506;4.678;2022-12-18T00:15:25;67.45;;;32.92;;
61642;SDS011;47551;52.506;4.678;2022-12-18T00:15:45;73.53;;;34.43;;
61642;SDS011;47551;52.506;4.678;2022-12-18T00:16:07;75.10;;;35.00;;
61642;SDS011;47551;52.506;4.678;2022-12-18T00:16:32;75.15;;;34.47;;
61642;SDS011;47551;52.506;4.678;2022-12-18T00:16:55;70.95;;;34.05;;
61642;SDS011;47551;52.506;4.678;2022-12-18T00:17:15;68.70;;;33.53;;
61642;SDS011;47551;52.506;4.678;2022-12-18T00:17:35;70.93;;;33.20;;
61642;SDS011;47551;52.506;4.678;2022-12-18T00:17:56;70.93;;;33.73;;
61642;SDS011;47551;52.506;4.678;2022-12-18T00:18:16;72.60;;;34.43;;
61642;SDS011;47551;52.506;4.678;2022-12-18T00:18:36;73.80;;;34.80;;
61642;SDS011;47551;52.506;4.678;2022-12-18T00:18:57;70.47;;;32.67;;
61642;SDS011;47551;52.506;4.678;2022-12-18T00:19:18;73.30;;;34.20;;
61642;SDS011;47551;52.506;4.678;2022-12-18T00:19:38;72.93;;;34.13;;
61642;SDS011;47551;52.506;4.678;2022-12-18T00:19:58;72.53;;;33.97;;
61642;SDS011;47551;52.506;4.678;2022-12-18T00:20:18;74.70;;;34.87;;
61642;SDS011;47551;52.506;4.678;2022-12-18T00:20:45;74.03;;;33.22;;
61642;SDS011;47551;52.506;4.678;2022-12-18T00:21:09;73.15;;;34.15;;
61642;SDS011;47551;52.506;4.678;2022-12-18T00:21:31;73.53;;;34.42;;
61642;SDS011;47551;52.506;4.678;2022-12-18T00:21:52;73.25;;;34.47;;
61642;SDS011;47551;52.506;4.678;2022-12-18T00:22:13;74.55;;;34.00;;
61642;SDS011;47551;52.506;4.678;2022-12-18T00:22:33;74.35;;;34.10;;
61642;SDS011;47551;52.506;4.678;2022-12-18T00:22:54;71.47;;;32.63;;
61642;SDS011;47551;52.506;4.678;2022-12-18T00:23:14;72.05;;;33.55;;
61642;SDS011;47551;52.506;4.678;2022-12-18T00:23:35;72.53;;;33.53;;
61642;SDS011;47551;52.506;4.678;2022-12-18T00:23:58;73.00;;;33.90;;
61642;SDS011;47551;52.506;4.678;2022-12-18T00:24:28;73.60;;;34.55;;
61642;SDS011;47551;52.506;4.678;2022-12-18T00:24:49;74.70;;;33.77;;
61642;SDS011;47551;52.506;4.678;2022-12-18T00:25:12;73.20;;;34.10;;
61642;SDS011;47551;52.506;4.678;2022-12-18T00:25:33;74.03;;;33.88;;
61642;SDS011;47551;52.506;4.678;2022-12-18T00:26:03;71.68;;;33.67;;
61642;SDS011;47551;52.506;4.678;2022-12-18T00:26:32;72.93;;;34.28;;
61642;SDS011;47551;52.506;4.678;2022-12-18T00:26:56;76.97;;;34.95;;
61642;SDS011;47551;52.506;4.678;2022-12-18T00:27:17;79.13;;;35.43;;
61642;SDS011;47551;52.506;4.678;2022-12-18T00:27:37;76.07;;;35.03;;
61642;SDS011;47551;52.506;4.678;2022-12-18T00:27:57;76.47;;;34.75;;
61642;SDS011;47551;52.506;4.678;2022-12-18T00:28:18;77.23;;;35.03;;
61642;SDS011;47551;52.506;4.678;2022-12-18T00:28:38;74.18;;;34.67;;
61642;SDS011;47551;52.506;4.678;2022-12-18T00:28:59;74.87;;;34.50;;
61642;SDS011;47551;52.506;4.678;2022-12-18T00:29:21;72.90;;;34.00;;
61642;SDS011;47551;52.506;4.678;2022-12-18T00:29:42;71.33;;;32.50;;
61642;SDS011;47551;52.506;4.678;2022-12-18T00:30:02;73.88;;;32.20;;
61642;SDS011;47551;52.506;4.678;2022-12-18T00:30:22;70.37;;;32.03;;
61642;SDS011;47551;52.506;4.678;2022-12-18T00:30:43;73.95;;;33.15;;
61642;SDS011;47551;52.506;4.678;2022-12-18T00:31:04;72.27;;;33.17;;
61642;SDS011;47551;52.506;4.678;2022-12-18T00:31:26;72.05;;;33.63;;
61642;SDS011;47551;52.506;4.678;2022-12-18T00:31:46;72.03;;;33.20;;
61642;SDS011;47551;52.506;4.678;2022-12-18T00:32:07;70.15;;;32.50;;
61642;SDS011;47551;52.506;4.678;2022-12-18T00:32:27;70.90;;;32.30;;
61642;SDS011;47551;52.506;4.678;2022-12-18T00:32:47;75.43;;;32.92;;
61642;SDS011;47551;52.506;4.678;2022-12-18T00:33:07;70.53;;;32.60;;
61642;SDS011;47551;52.506;4.678;2022-12-18T00:33:28;69.23;;;32.20;;
61642;SDS011;47551;52.506;4.678;2022-12-18T00:33:48;70.22;;;32.92;;
61642;SDS011;47551;52.506;4.678;2022-12-18T00:34:10;73.00;;;34.05;;
61642;SDS011;47551;52.506;4.678;2022-12-18T00:34:31;71.10;;;33.53;;
61642;SDS011;47551;52.506;4.678;2022-12-18T00:34:52;70.87;;;32.83;;
61642;SDS011;47551;52.506;4.678;2022-12-18T00:35:12;70.88;;;32.97;;
61642;SDS011;47551;52.506;4.678;2022-12-18T00:35:32;70.53;;;33.60;;
61642;SDS011;47551;52.506;4.678;2022-12-18T00:35:52;69.43;;;33.07;;
61642;SDS011;47551;52.506;4.678;2022-12-18T00:36:14;72.32;;;33.55;;
61642;SDS011;47551;52.506;4.678;2022-12-18T00:36:41;71.32;;;34.13;;
61642;SDS011;47551;52.506;4.678;2022-12-18T00:37:01;74.28;;;34.05;;
61642;SDS011;47551;52.506;4.678;2022-12-18T00:37:22;70.03;;;33.17;;
61642;SDS011;47551;52.506;4.678;2022-12-18T00:37:42;69.33;;;33.57;;
61642;SDS011;47551;52.506;4.678;2022-12-18T00:38:05;70.35;;;34.05;;
61642;SDS011;47551;52.506;4.678;2022-12-18T00:38:26;66.82;;;32.10;;
61642;SDS011;47551;52.506;4.678;2022-12-18T00:38:47;69.88;;;32.67;;
61642;SDS011;47551;52.506;4.678;2022-12-18T00:39:07;69.85;;;32.92;;
61642;SDS011;47551;52.506;4.678;2022-12-18T00:39:28;66.07;;;32.17;;
61642;SDS011;47551;52.506;4.678;2022-12-18T00:39:48;69.80;;;32.57;;
61642;SDS011;47551;52.506;4.678;2022-12-18T00:40:09;69.90;;;32.13;;
61642;SDS011;47551;52.506;4.678;2022-12-18T00:40:30;72.30;;;33.10;;
61642;SDS011;47551;52.506;4.678;2022-12-18T00:40:50;72.73;;;33.20;;
61642;SDS011;47551;52.506;4.678;2022-12-18T00:41:11;70.38;;;33.60;;
61642;SDS011;47551;52.506;4.678;2022-12-18T00:41:33;68.10;;;32.42;;
61642;SDS011;47551;52.506;4.678;2022-12-18T00:42:15;67.05;;;32.00;;
61642;SDS011;47551;52.506;4.678;2022-12-18T00:42:54;70.10;;;31.92;;
61642;SDS011;47551;52.506;4.678;2022-12-18T00:43:23;67.45;;;32.15;;
61642;SDS011;47551;52.506;4.678;2022-12-18T00:43:47;70.05;;;32.97;;
61642;SDS011;47551;52.506;4.678;2022-12-18T00:44:08;72.60;;;32.20;;
61642;SDS011;47551;52.506;4.678;2022-12-18T00:44:30;66.22;;;31.58;;
61642;SDS011;47551;52.506;4.678;2022-12-18T00:44:50;68.03;;;32.07;;
61642;SDS011;47551;52.506;4.678;2022-12-18T00:45:11;64.80;;;30.87;;
61642;SDS011;47551;52.506;4.678;2022-12-18T00:45:34;62.72;;;30.75;;
61642;SDS011;47551;52.506;4.678;2022-12-18T00:45:54;65.53;;;32.13;;
61642;SDS011;47551;52.506;4.678;2022-12-18T00:46:14;64.83;;;31.67;;
61642;SDS011;47551;52.506;4.678;2022-12-18T00:46:35;67.25;;;30.90;;
61642;SDS011;47551;52.506;4.678;2022-12-18T00:46:55;67.27;;;31.30;;
61642;SDS011;47551;52.506;4.678;2022-12-18T00:47:18;67.07;;;31.42;;
61642;SDS011;47551;52.506;4.678;2022-12-18T00:47:39;69.50;;;31.25;;
61642;SDS011;47551;52.506;4.678;2022-12-18T00:48:00;62.47;;;30.15;;
61642;SDS011;47551;52.506;4.678;2022-12-18T00:48:20;63.37;;;31.30;;
61642;SDS011;47551;52.506;4.678;2022-12-18T00:48:41;67.75;;;31.60;;
61642;SDS011;47551;52.506;4.678;2022-12-18T00:49:04;66.20;;;31.05;;
61642;SDS011;47551;52.506;4.678;2022-12-18T00:49:24;68.40;;;30.85;;
61642;SDS011;47551;52.506;4.678;2022-12-18T00:49:45;67.60;;;31.00;;
61642;SDS011;47551;52.506;4.678;2022-12-18T00:50:05;66.93;;;31.30;;
61642;SDS011;47551;52.506;4.678;2022-12-18T00:50:26;67.13;;;30.65;;
61642;SDS011;47551;52.506;4.678;2022-12-18T00:50:49;65.47;;;31.10;;
61642;SDS011;47551;52.506;4.678;2022-12-18T00:51:10;64.43;;;30.55;;
61642;SDS011;47551;52.506;4.678;2022-12-18T00:51:33;63.95;;;30.70;;
61642;SDS011;47551;52.506;4.678;2022-12-18T00:51:54;66.18;;;30.65;;
61642;SDS011;47551;52.506;4.678;2022-12-18T00:52:14;67.73;;;30.90;;
61642;SDS011;47551;52.506;4.678;2022-12-18T00:52:34;68.10;;;31.13;;
61642;SDS011;47551;52.506;4.678;2022-12-18T00:52:54;65.33;;;30.37;;
61642;SDS011;47551;52.506;4.678;2022-12-18T00:53:15;62.40;;;29.90;;
61642;SDS011;47551;52.506;4.678;2022-12-18T00:53:35;60.92;;;30.20;;
61642;SDS011;47551;52.506;4.678;2022-12-18T00:53:56;67.17;;;30.43;;
61642;SDS011;47551;52.506;4.678;2022-12-18T00:54:16;68.88;;;30.45;;
61642;SDS011;47551;52.506;4.678;2022-12-18T00:54:37;68.18;;;31.10;;
61642;SDS011;47551;52.506;4.678;2022-12-18T00:54:57;68.17;;;32.03;;
61642;SDS011;47551;52.506;4.678;2022-12-18T00:55:18;66.07;;;31.00;;
61642;SDS011;47551;52.506;4.678;2022-12-18T00:55:38;65.10;;;31.20;;
61642;SDS011;47551;52.506;4.678;2022-12-18T00:55:59;65.70;;;31.02;;
61642;SDS011;47551;52.506;4.678;2022-12-18T00:56:20;63.55;;;30.58;;
61642;SDS011;47551;52.506;4.678;2022-12-18T00:56:40;63.50;;;31.03;;
61642;SDS011;47551;52.506;4.678;2022-12-18T00:57:00;66.82;;;31.35;;
61642;SDS011;47551;52.506;4.678;2022-12-18T00:57:21;71.20;;;32.77;;
61642;SDS011;47551;52.506;4.678;2022-12-18T00:57:44;70.53;;;31.88;;
61642;SDS011;47551;52.506;4.678;2022-12-18T00:58:04;70.50;;;32.37;;
61642;SDS011;47551;52.506;4.678;2022-12-18T00:58:24;70.43;;;33.03;;
61642;SDS011;47551;52.506;4.678;2022-12-18T00:58:45;69.93;;;32.87;;
61642;SDS011;47551;52.506;4.678;2022-12-18T00:59:05;70.65;;;32.40;;
61642;SDS011;47551;52.506;4.678;2022-12-18T00:59:26;69.78;;;32.38;;
61642;SDS011;47551;52.506;4.678;2022-12-18T00:59:46;66.33;;;33.03;;
61642;SDS011;47551;52.506;4.678;2022-12-18T01:00:07;67.97;;;33.03;;
61642;SDS011;47551;52.506;4.678;2022-12-18T01:00:30;70.10;;;32.47;;
61642;SDS011;47551;52.506;4.678;2022-12-18T01:00:50;71.63;;;32.20;;
61642;SDS011;47551;52.506;4.678;2022-12-18T01:01:11;68.63;;;32.33;;
61642;SDS011;47551;52.506;4.678;2022-12-18T01:01:32;69.40;;;32.42;;
61642;SDS011;47551;52.506;4.678;2022-12-18T01:01:55;70.45;;;32.03;;
61642;SDS011;47551;52.506;4.678;2022-12-18T01:02:16;68.30;;;32.43;;
61642;SDS011;47551;52.506;4.678;2022-12-18T01:02:39;68.70;;;32.67;;
61642;SDS011;47551;52.506;4.678;2022-12-18T01:03:02;67.97;;;31.77;;
61642;SDS011;47551;52.506;4.678;2022-12-18T01:03:23;68.53;;;31.42;;
61642;SDS011;47551;52.506;4.678;2022-12-18T01:03:43;65.55;;;31.75;;
61642;SDS011;47551;52.506;4.678;2022-12-18T01:04:05;61.97;;;30.33;;
61642;SDS011;47551;52.506;4.678;2022-12-18T01:04:25;62.53;;;30.33;;
61642;SDS011;47551;52.506;4.678;2022-12-18T01:04:48;64.67;;;30.90;;
61642;SDS011;47551;52.506;4.678;2022-12-18T01:05:09;62.70;;;30.20;;
61642;SDS011;47551;52.506;4.678;2022-12-18T01:05:33;62.10;;;30.10;;
61642;SDS011;47551;52.506;4.678;2022-12-18T01:05:53;63.13;;;30.77;;
61642;SDS011;47551;52.506;4.678;2022-12-18T01:06:14;61.63;;;30.37;;
61642;SDS011;47551;52.506;4.678;2022-12-18T01:06:35;62.58;;;30.70;;
61642;SDS011;47551;52.506;4.678;2022-12-18T01:06:56;59.37;;;30.77;;
61642;SDS011;47551;52.506;4.678;2022-12-18T01:07:16;60.87;;;29.27;;
61642;SDS011;47551;52.506;4.678;2022-12-18T01:07:42;63.20;;;29.02;;
61642;SDS011;47551;52.506;4.678;2022-12-18T01:08:03;64.65;;;31.25;;
61642;SDS011;47551;52.506;4.678;2022-12-18T01:08:23;64.15;;;29.85;;
61642;SDS011;47551;52.506;4.678;2022-12-18T01:08:44;63.13;;;30.53;;
61642;SDS011;47551;52.506;4.678;2022-12-18T01:09:04;66.45;;;31.40;;
61642;SDS011;47551;52.506;4.678;2022-12-18T01:09:27;68.30;;;31.55;;
61642;SDS011;47551;52.506;4.678;2022-12-18T01:09:50;65.35;;;30.98;;
61642;SDS011;47551;52.506;4.678;2022-12-18T01:10:11;67.47;;;30.70;;
61642;SDS011;47551;52.506;4.678;2022-12-18T01:10:32;67.63;;;31.75;;
61642;SDS011;47551;52.506;4.678;2022-12-18T01:10:52;67.47;;;31.80;;
61642;SDS011;47551;52.506;4.678;2022-12-18T01:11:15;64.95;;;31.48;;
61642;SDS011;47551;52.506;4.678;2022-12-18T01:11:37;65.18;;;31.92;;
61642;SDS011;47551;52.506;4.678;2022-12-18T01:11:58;64.43;;;31.50;;
61642;SDS011;47551;52.506;4.678;2022-12-18T01:12:18;65.50;;;31.87;;
61642;SDS011;47551;52.506;4.678;2022-12-18T01:12:38;64.63;;;32.47;;
61642;SDS011;47551;52.506;4.678;2022-12-18T01:12:59;64.93;;;32.23;;
61642;SDS011;47551;52.506;4.678;2022-12-18T01:13:19;66.63;;;31.83;;
61642;SDS011;47551;52.506;4.678;2022-12-18T01:13:40;65.53;;;32.20;;
61642;SDS011;47551;52.506;4.678;2022-12-18T01:14:00;67.57;;;32.80;;
61642;SDS011;47551;52.506;4.678;2022-12-18T01:14:21;68.47;;;32.53;;
61642;SDS011;47551;52.506;4.678;2022-12-18T01:14:41;69.20;;;32.67;;
61642;SDS011;47551;52.506;4.678;2022-12-18T01:15:01;68.67;;;32.20;;
61642;SDS011;47551;52.506;4.678;2022-12-18T01:15:23;66.97;;;31.98;;
61642;SDS011;47551;52.506;4.678;2022-12-18T01:15:49;66.03;;;32.30;;
61642;SDS011;47551;52.506;4.678;2022-12-18T01:16:11;65.25;;;32.42;;
61642;SDS011;47551;52.506;4.678;2022-12-18T01:16:35;67.93;;;32.60;;
61642;SDS011;47551;52.506;4.678;2022-12-18T01:16:56;68.53;;;32.47;;
61642;SDS011;47551;52.506;4.678;2022-12-18T01:17:16;71.07;;;33.27;;
61642;SDS011;47551;52.506;4.678;2022-12-18T01:17:36;69.28;;;32.58;;
61642;SDS011;47551;52.506;4.678;2022-12-18T01:17:57;69.20;;;32.90;;
61642;SDS011;47551;52.506;4.678;2022-12-18T01:18:17;69.67;;;32.23;;
61642;SDS011;47551;52.506;4.678;2022-12-18T01:18:37;74.63;;;33.33;;
61642;SDS011;47551;52.506;4.678;2022-12-18T01:18:58;72.73;;;33.47;;
61642;SDS011;47551;52.506;4.678;2022-12-18T01:19:18;69.80;;;32.42;;
61642;SDS011;47551;52.506;4.678;2022-12-18T01:19:41;65.13;;;32.47;;
61642;SDS011;47551;52.506;4.678;2022-12-18T01:20:01;71.37;;;33.73;;
61642;SDS011;47551;52.506;4.678;2022-12-18T01:20:22;69.43;;;32.40;;
61642;SDS011;47551;52.506;4.678;2022-12-18T01:20:43;68.22;;;31.40;;
61642;SDS011;47551;52.506;4.678;2022-12-18T01:21:11;66.90;;;30.53;;
61642;SDS011;47551;52.506;4.678;2022-12-18T01:21:33;65.03;;;31.05;;
61642;SDS011;47551;52.506;4.678;2022-12-18T01:21:54;63.25;;;30.35;;
61642;SDS011;47551;52.506;4.678;2022-12-18T01:22:14;64.40;;;30.23;;
61642;SDS011;47551;52.506;4.678;2022-12-18T01:22:35;64.30;;;29.73;;
61642;SDS011;47551;52.506;4.678;2022-12-18T01:22:55;65.07;;;30.23;;
61642;SDS011;47551;52.506;4.678;2022-12-18T01:23:16;63.87;;;31.00;;
61642;SDS011;47551;52.506;4.678;2022-12-18T01:23:42;62.78;;;31.30;;
61642;SDS011;47551;52.506;4.678;2022-12-18T01:24:02;64.60;;;30.65;;
61642;SDS011;47551;52.506;4.678;2022-12-18T01:24:23;63.88;;;30.10;;
61642;SDS011;47551;52.506;4.678;2022-12-18T01:24:43;65.60;;;30.30;;
61642;SDS011;47551;52.506;4.678;2022-12-18T01:25:06;64.40;;;30.87;;
61642;SDS011;47551;52.506;4.678;2022-12-18T01:25:27;67.32;;;31.05;;
61642;SDS011;47551;52.506;4.678;2022-12-18T01:25:47;66.30;;;30.80;;
61642;SDS011;47551;52.506;4.678;2022-12-18T01:26:08;63.70;;;30.83;;
61642;SDS011;47551;52.506;4.678;2022-12-18T01:26:31;64.18;;;31.08;;
61642;SDS011;47551;52.506;4.678;2022-12-18T01:26:51;60.20;;;30.00;;
61642;SDS011;47551;52.506;4.678;2022-12-18T01:27:11;61.65;;;30.73;;
61642;SDS011;47551;52.506;4.678;2022-12-18T01:27:33;62.73;;;30.70;;
61642;SDS011;47551;52.506;4.678;2022-12-18T01:27:53;68.28;;;31.33;;
61642;SDS011;47551;52.506;4.678;2022-12-18T01:28:14;66.17;;;31.77;;
61642;SDS011;47551;52.506;4.678;2022-12-18T01:28:34;66.53;;;31.48;;
61642;SDS011;47551;52.506;4.678;2022-12-18T01:28:55;67.35;;;31.42;;
61642;SDS011;47551;52.506;4.678;2022-12-18T01:29:16;66.10;;;30.80;;
61642;SDS011;47551;52.506;4.678;2022-12-18T01:29:37;65.23;;;31.20;;
61642;SDS011;47551;52.506;4.678;2022-12-18T01:29:57;66.22;;;31.30;;
61642;SDS011;47551;52.506;4.678;2022-12-18T01:30:17;62.50;;;30.43;;
61642;SDS011;47551;52.506;4.678;2022-12-18T01:30:37;63.10;;;30.60;;
61642;SDS011;47551;52.506;4.678;2022-12-18T01:31:08;62.33;;;31.53;;
61642;SDS011;47551;52.506;4.678;2022-12-18T01:31:31;64.45;;;30.15;;
61642;SDS011;47551;52.506;4.678;2022-12-18T01:31:54;58.28;;;29.17;;
61642;SDS011;47551;52.506;4.678;2022-12-18T01:32:15;60.58;;;30.40;;
61642;SDS011;47551;52.506;4.678;2022-12-18T01:32:36;64.43;;;30.50;;
61642;SDS011;47551;52.506;4.678;2022-12-18T01:32:56;64.80;;;30.20;;
61642;SDS011;47551;52.506;4.678;2022-12-18T01:33:16;58.73;;;28.23;;
61642;SDS011;47551;52.506;4.678;2022-12-18T01:33:37;64.07;;;30.63;;
61642;SDS011;47551;52.506;4.678;2022-12-18T01:33:57;63.42;;;29.92;;
61642;SDS011;47551;52.506;4.678;2022-12-18T01:34:19;62.08;;;29.65;;
61642;SDS011;47551;52.506;4.678;2022-12-18T01:34:42;61.85;;;30.38;;
61642;SDS011;47551;52.506;4.678;2022-12-18T01:35:02;62.73;;;28.80;;
61642;SDS011;47551;52.506;4.678;2022-12-18T01:35:23;60.65;;;28.90;;
61642;SDS011;47551;52.506;4.678;2022-12-18T01:35:43;62.53;;;29.90;;
61642;SDS011;47551;52.506;4.678;2022-12-18T01:36:04;64.47;;;29.90;;
61642;SDS011;47551;52.506;4.678;2022-12-18T01:36:26;64.25;;;29.45;;
61642;SDS011;47551;52.506;4.678;2022-12-18T01:36:50;64.47;;;30.67;;
61642;SDS011;47551;52.506;4.678;2022-12-18T01:37:13;60.95;;;29.95;;
61642;SDS011;47551;52.506;4.678;2022-12-18T01:37:33;62.20;;;29.10;;
61642;SDS011;47551;52.506;4.678;2022-12-18T01:37:54;62.23;;;29.27;;
61642;SDS011;47551;52.506;4.678;2022-12-18T01:38:15;64.25;;;30.38;;
61642;SDS011;47551;52.506;4.678;2022-12-18T01:38:35;62.45;;;30.75;;
61642;SDS011;47551;52.506;4.678;2022-12-18T01:38:56;63.90;;;30.23;;
61642;SDS011;47551;52.506;4.678;2022-12-18T01:39:16;64.00;;;30.05;;
61642;SDS011;47551;52.506;4.678;2022-12-18T01:39:37;62.83;;;30.10;;
61642;SDS011;47551;52.506;4.678;2022-12-18T01:39:58;63.58;;;30.33;;
61642;SDS011;47551;52.506;4.678;2022-12-18T01:40:18;65.23;;;30.27;;
61642;SDS011;47551;52.506;4.678;2022-12-18T01:40:41;65.45;;;29.95;;
61642;SDS011;47551;52.506;4.678;2022-12-18T01:41:02;61.95;;;29.75;;
61642;SDS011;47551;52.506;4.678;2022-12-18T01:41:23;60.67;;;30.07;;
61642;SDS011;47551;52.506;4.678;2022-12-18T01:42:12;62.83;;;29.45;;
61642;SDS011;47551;52.506;4.678;2022-12-18T01:42:34;60.80;;;29.45;;
61642;SDS011;47551;52.506;4.678;2022-12-18T01:42:54;61.30;;;30.47;;
61642;SDS011;47551;52.506;4.678;2022-12-18T01:43:21;61.08;;;29.67;;
61642;SDS011;47551;52.506;4.678;2022-12-18T01:44:00;59.60;;;28.88;;
61642;SDS011;47551;52.506;4.678;2022-12-18T01:45:35;62.83;;;29.47;;
61642;SDS011;47551;52.506;4.678;2022-12-18T01:45:58;65.63;;;30.37;;
61642;SDS011;47551;52.506;4.678;2022-12-18T01:46:20;63.88;;;30.75;;
61642;SDS011;47551;52.506;4.678;2022-12-18T01:46:42;64.30;;;30.55;;
61642;SDS011;47551;52.506;4.678;2022-12-18T01:47:02;63.10;;;29.97;;
61642;SDS011;47551;52.506;4.678;2022-12-18T01:47:28;62.23;;;30.10;;
61642;SDS011;47551;52.506;4.678;2022-12-18T01:48:28;64.65;;;30.60;;
61642;SDS011;47551;52.506;4.678;2022-12-18T01:48:49;65.70;;;30.60;;
61642;SDS011;47551;52.506;4.678;2022-12-18T01:49:16;64.00;;;31.10;;
61642;SDS011;47551;52.506;4.678;2022-12-18T01:49:36;63.97;;;30.17;;
61642;SDS011;47551;52.506;4.678;2022-12-18T01:50:00;63.55;;;31.27;;
61642;SDS011;47551;52.506;4.678;2022-12-18T01:50:30;60.63;;;29.98;;
61642;SDS011;47551;52.506;4.678;2022-12-18T01:51:02;64.32;;;30.27;;
61642;SDS011;47551;52.506;4.678;2022-12-18T01:51:22;66.93;;;30.70;;
61642;SDS011;47551;52.506;4.678;2022-12-18T01:51:46;66.38;;;30.60;;
61642;SDS011;47551;52.506;4.678;2022-12-18T01:52:06;68.88;;;30.95;;
61642;SDS011;47551;52.506;4.678;2022-12-18T01:52:28;65.70;;;30.57;;
61642;SDS011;47551;52.506;4.678;2022-12-18T01:52:55;61.83;;;30.38;;
61642;SDS011;47551;52.506;4.678;2022-12-18T01:53:19;64.47;;;30.67;;
61642;SDS011;47551;52.506;4.678;2022-12-18T01:53:42;67.32;;;31.77;;
61642;SDS011;47551;52.506;4.678;2022-12-18T01:54:04;66.47;;;31.20;;
61642;SDS011;47551;52.506;4.678;2022-12-18T01:54:24;67.10;;;31.77;;
61642;SDS011;47551;52.506;4.678;2022-12-18T01:54:45;66.57;;;31.33;;
61642;SDS011;47551;52.506;4.678;2022-12-18T01:55:06;68.40;;;31.92;;
61642;SDS011;47551;52.506;4.678;2022-12-18T01:55:29;67.65;;;31.38;;
61642;SDS011;47551;52.506;4.678;2022-12-18T01:55:56;66.85;;;31.58;;
61642;SDS011;47551;52.506;4.678;2022-12-18T01:56:18;67.30;;;31.27;;
61642;SDS011;47551;52.506;4.678;2022-12-18T01:56:40;66.90;;;31.75;;
61642;SDS011;47551;52.506;4.678;2022-12-18T01:57:00;67.43;;;31.83;;
61642;SDS011;47551;52.506;4.678;2022-12-18T01:57:21;65.03;;;31.30;;
61642;SDS011;47551;52.506;4.678;2022-12-18T01:57:43;65.40;;;31.45;;
61642;SDS011;47551;52.506;4.678;2022-12-18T01:58:06;64.05;;;31.25;;
61642;SDS011;47551;52.506;4.678;2022-12-18T01:58:38;64.60;;;31.25;;
61642;SDS011;47551;52.506;4.678;2022-12-18T01:59:04;65.50;;;29.70;;
61642;SDS011;47551;52.506;4.678;2022-12-18T01:59:31;63.75;;;30.08;;
61642;SDS011;47551;52.506;4.678;2022-12-18T01:59:54;66.30;;;30.65;;
61642;SDS011;47551;52.506;4.678;2022-12-18T02:00:20;63.83;;;29.85;;
61642;SDS011;47551;52.506;4.678;2022-12-18T02:00:41;65.00;;;30.48;;
61642;SDS011;47551;52.506;4.678;2022-12-18T02:01:02;63.67;;;29.87;;
61642;SDS011;47551;52.506;4.678;2022-12-18T02:01:23;65.97;;;28.98;;
61642;SDS011;47551;52.506;4.678;2022-12-18T02:01:44;65.85;;;30.17;;
61642;SDS011;47551;52.506;4.678;2022-12-18T02:02:04;61.50;;;29.87;;
61642;SDS011;47551;52.506;4.678;2022-12-18T02:02:26;61.53;;;29.73;;
61642;SDS011;47551;52.506;4.678;2022-12-18T02:02:48;62.33;;;30.42;;
61642;SDS011;47551;52.506;4.678;2022-12-18T02:03:11;61.83;;;30.17;;
61642;SDS011;47551;52.506;4.678;2022-12-18T02:03:32;61.90;;;29.93;;
61642;SDS011;47551;52.506;4.678;2022-12-18T02:03:52;64.32;;;30.33;;
61642;SDS011;47551;52.506;4.678;2022-12-18T02:04:20;64.43;;;30.40;;
61642;SDS011;47551;52.506;4.678;2022-12-18T02:04:42;61.47;;;29.75;;
61642;SDS011;47551;52.506;4.678;2022-12-18T02:05:02;63.03;;;29.50;;
61642;SDS011;47551;52.506;4.678;2022-12-18T02:06:26;59.83;;;29.58;;
61642;SDS011;47551;52.506;4.678;2022-12-18T02:08:34;60.65;;;29.92;;
61642;SDS011;47551;52.506;4.678;2022-12-18T02:09:46;60.00;;;28.92;;
61642;SDS011;47551;52.506;4.678;2022-12-18T02:10:51;62.30;;;29.75;;
61642;SDS011;47551;52.506;4.678;2022-12-18T02:15:00;60.88;;;29.88;;
61642;SDS011;47551;52.506;4.678;2022-12-18T02:16:14;61.97;;;30.55;;
61642;SDS011;47551;52.506;4.678;2022-12-18T02:16:40;58.58;;;30.40;;
61642;SDS011;47551;52.506;4.678;2022-12-18T02:17:13;63.40;;;31.33;;
61642;SDS011;47551;52.506;4.678;2022-12-18T02:18:07;63.17;;;30.42;;
61642;SDS011;47551;52.506;4.678;2022-12-18T02:18:42;64.22;;;30.77;;
61642;SDS011;47551;52.506;4.678;2022-12-18T02:19:08;62.42;;;30.60;;
61642;SDS011;47551;52.506;4.678;2022-12-18T02:20:32;62.53;;;31.10;;
61642;SDS011;47551;52.506;4.678;2022-12-18T02:21:28;65.95;;;31.45;;